Weather at Gigha Airfield

Public forecast

Using degrees Celsius for public forecast. Weather courtesy of forecast.io.

Closest aviation weather report (METAR) to Gigha Airfield

Closest report is Campbeltown Airport, 13.3 nm (24.6 km) S.

2022/12/06 13:20 (retrieved 35 minutes ago)

EGEC 061320Z 00000KT CAVOK 07/01 Q1029

Closest aviation forecast (TAF) to Gigha Airfield

Closest forecast is Glasgow Prestwick Airport, 40.7 nm (75.4 km) ESE.

2022/12/06 12:00 (retrieved 2 hours ago)

TAF EGPK 061058Z 0612/0712 04003KT 9999 FEW030